Time;durP1;ratioP1;P1;durP2;ratioP2;P2;SDS_P1;SDS_P2;PMS_P1;PMS_P2;Temp;Humidity;BMP_temperature;BMP_pressure;BME280_temperature;BME280_humidity;BME280_pressure;Samples;Min_cycle;Max_cycle;Signal;HPM_P1;HPM_P2
2021/11/28 00:02:14;;;;;;;14.17;8.63;;;;;;;;;;5117641;28;20784;-71
2021/11/28 00:04:42;;;;;;;13.30;7.60;;;;;;;;;;5116845;28;20513;-71
2021/11/28 00:10:02;;;;;;;18.27;8.73;;;;;;;;;;5108132;28;20490;-72
2021/11/28 00:12:41;;;;;;;10.83;7.10;;;;;;;;;;5120943;27;20478;-72
2021/11/28 00:15:10;;;;;;;13.27;9.33;;;;;;;;;;5122049;27;20963;-70
2021/11/28 00:17:38;;;;;;;18.20;7.97;;;;;;;;;;5121852;27;20454;-71
2021/11/28 00:20:08;;;;;;;17.20;9.30;;;;;;;;;;5120663;27;20914;-71
2021/11/28 00:22:38;;;;;;;18.03;9.03;;;;;;;;;;5121818;27;20788;-71
2021/11/28 00:25:08;;;;;;;14.23;7.27;;;;;;;;;;5121714;27;20529;-71
2021/11/28 00:27:38;;;;;;;10.70;7.07;;;;;;;;;;5121436;27;20454;-71
2021/11/28 00:30:07;;;;;;;17.83;8.97;;;;;;;;;;5121787;27;20466;-70
2021/11/28 00:32:35;;;;;;;16.13;9.30;;;;;;;;;;5120841;27;20552;-71
2021/11/28 00:35:02;;;;;;;16.50;9.27;;;;;;;;;;5122806;27;20732;-71
2021/11/28 00:37:33;;;;;;;14.07;8.00;;;;;;;;;;5121223;27;20783;-72
2021/11/28 00:40:05;;;;;;;12.30;7.43;;;;;;;;;;5121171;27;20894;-70
2021/11/28 00:42:35;;;;;;;18.60;9.40;;;;;;;;;;5121831;27;20489;-71
2021/11/28 00:45:03;;;;;;;14.33;8.80;;;;;;;;;;5121699;27;20473;-70
2021/11/28 00:47:34;;;;;;;15.90;9.73;;;;;;;;;;5120097;28;20451;-70
2021/11/28 00:50:16;;;;;;;15.77;8.70;;;;;;;;;;5120973;27;21052;-70
2021/11/28 00:52:44;;;;;;;9.40;5.77;;;;;;;;;;5120479;27;20549;-71
2021/11/28 00:55:13;;;;;;;14.27;8.03;;;;;;;;;;5120716;27;20854;-70
2021/11/28 00:57:43;;;;;;;16.20;9.10;;;;;;;;;;5121469;27;20458;-70
2021/11/28 01:00:11;;;;;;;13.67;9.60;;;;;;;;;;5120566;27;20482;-71
2021/11/28 01:02:39;;;;;;;12.07;6.70;;;;;;;;;;5100754;28;20704;-70
2021/11/28 01:05:08;;;;;;;15.47;8.50;;;;;;;;;;5100999;28;20481;-71
2021/11/28 01:07:38;;;;;;;15.43;10.17;;;;;;;;;;5100146;28;20474;-71
2021/11/28 01:10:06;;;;;;;11.93;7.77;;;;;;;;;;5101063;28;20506;-71
2021/11/28 01:12:34;;;;;;;19.13;9.03;;;;;;;;;;5100962;28;20456;-71
2021/11/28 01:15:04;;;;;;;14.00;8.07;;;;;;;;;;5099715;28;20487;-71
2021/11/28 01:17:34;;;;;;;18.33;9.80;;;;;;;;;;5100050;28;20466;-70
2021/11/28 01:20:02;;;;;;;14.80;7.63;;;;;;;;;;5099514;28;20484;-72
2021/11/28 01:22:30;;;;;;;14.23;9.07;;;;;;;;;;5099477;28;20739;-72
2021/11/28 01:24:57;;;;;;;9.90;6.50;;;;;;;;;;5100618;28;20451;-71
2021/11/28 01:27:25;;;;;;;13.33;8.60;;;;;;;;;;5100211;28;20448;-71
2021/11/28 01:29:53;;;;;;;15.80;8.93;;;;;;;;;;5100202;28;20460;-72
2021/11/28 01:32:33;;;;;;;12.53;10.00;;;;;;;;;;5099654;28;20456;-70
2021/11/28 01:35:06;;;;;;;24.97;9.23;;;;;;;;;;5099828;28;20467;-70
2021/11/28 01:37:38;;;;;;;19.13;10.67;;;;;;;;;;5100046;28;20460;-71
2021/11/28 01:40:07;;;;;;;19.40;10.30;;;;;;;;;;5098642;28;20493;-71
2021/11/28 01:42:36;;;;;;;21.17;11.67;;;;;;;;;;5102394;27;20855;-71
2021/11/28 01:45:07;;;;;;;10.90;7.17;;;;;;;;;;5110924;27;20546;-71
2021/11/28 01:47:37;;;;;;;18.07;11.00;;;;;;;;;;5119422;27;20709;-70
2021/11/28 01:50:05;;;;;;;17.13;9.03;;;;;;;;;;5119502;27;20455;-71
2021/11/28 01:52:35;;;;;;;27.80;12.13;;;;;;;;;;5119029;27;20541;-71
2021/11/28 01:55:04;;;;;;;14.60;7.73;;;;;;;;;;5119711;28;20497;-71
2021/11/28 01:57:32;;;;;;;20.27;9.97;;;;;;;;;;5119565;27;20493;-72
2021/11/28 02:00:00;;;;;;;18.93;8.93;;;;;;;;;;5119035;27;20555;-71
2021/11/28 02:02:29;;;;;;;19.90;9.47;;;;;;;;;;5119646;27;20731;-71
2021/11/28 02:04:59;;;;;;;15.27;9.97;;;;;;;;;;5118997;27;20466;-71
2021/11/28 02:07:27;;;;;;;19.53;10.70;;;;;;;;;;5119318;27;20466;-71
2021/11/28 02:09:56;;;;;;;18.93;9.80;;;;;;;;;;5119667;27;20554;-72
2021/11/28 02:12:24;;;;;;;17.40;10.27;;;;;;;;;;5119315;27;20523;-71
2021/11/28 02:14:52;;;;;;;22.83;12.70;;;;;;;;;;5119336;27;20497;-72
2021/11/28 02:17:20;;;;;;;22.80;12.30;;;;;;;;;;5118729;27;20460;-71
2021/11/28 02:19:48;;;;;;;11.50;6.63;;;;;;;;;;5118204;27;20501;-71
2021/11/28 02:22:17;;;;;;;10.10;5.97;;;;;;;;;;5119390;27;20551;-72
2021/11/28 02:24:45;;;;;;;14.10;8.00;;;;;;;;;;5118958;27;20557;-71
2021/11/28 02:27:13;;;;;;;15.17;8.97;;;;;;;;;;5118536;27;20476;-72
2021/11/28 02:29:41;;;;;;;17.60;7.53;;;;;;;;;;5119561;27;20482;-70
2021/11/28 02:32:09;;;;;;;20.90;10.87;;;;;;;;;;5119500;27;20454;-71
2021/11/28 02:34:38;;;;;;;23.73;12.67;;;;;;;;;;5118801;27;20471;-71
2021/11/28 02:37:06;;;;;;;19.20;11.00;;;;;;;;;;5119523;27;20455;-71
2021/11/28 02:39:36;;;;;;;19.57;9.97;;;;;;;;;;5119813;28;20510;-72
2021/11/28 02:42:05;;;;;;;11.20;6.20;;;;;;;;;;5119055;27;20465;-71
2021/11/28 02:44:33;;;;;;;19.43;10.67;;;;;;;;;;5118887;27;20519;-71
2021/11/28 02:47:01;;;;;;;21.50;9.97;;;;;;;;;;5118912;28;20470;-71
2021/11/28 02:49:29;;;;;;;25.00;11.63;;;;;;;;;;5118937;28;20477;-72
2021/11/28 02:51:57;;;;;;;20.20;5.97;;;;;;;;;;5119220;27;20454;-72
2021/11/28 02:54:25;;;;;;;18.93;11.73;;;;;;;;;;5119358;28;20716;-72
2021/11/28 02:56:54;;;;;;;20.27;11.30;;;;;;;;;;5118885;27;20465;-71
2021/11/28 02:59:22;;;;;;;23.70;11.90;;;;;;;;;;5118589;27;20486;-71
2021/11/28 03:01:50;;;;;;;23.37;12.30;;;;;;;;;;5118844;27;20450;-72
2021/11/28 03:04:18;;;;;;;22.33;10.93;;;;;;;;;;5120830;27;20462;-71
2021/11/28 03:06:46;;;;;;;24.23;11.80;;;;;;;;;;5118344;27;20459;-71
2021/11/28 03:09:14;;;;;;;16.37;9.13;;;;;;;;;;5117934;27;20462;-71
2021/11/28 03:11:42;;;;;;;24.83;11.83;;;;;;;;;;5118548;27;20561;-71
2021/11/28 03:14:12;;;;;;;19.73;11.80;;;;;;;;;;5118206;27;20482;-71
2021/11/28 03:16:39;;;;;;;20.20;10.20;;;;;;;;;;5118256;27;20450;-71
2021/11/28 03:19:07;;;;;;;20.47;10.43;;;;;;;;;;5118065;27;20535;-71
2021/11/28 03:21:42;;;;;;;19.27;11.23;;;;;;;;;;5118314;27;20462;-71
2021/11/28 03:24:10;;;;;;;21.70;11.13;;;;;;;;;;5118178;27;20548;-70
2021/11/28 03:26:39;;;;;;;10.50;7.70;;;;;;;;;;5117943;28;20709;-71
2021/11/28 03:29:08;;;;;;;21.30;10.40;;;;;;;;;;5117912;27;20447;-71
2021/11/28 03:31:39;;;;;;;14.97;9.43;;;;;;;;;;5118164;28;20731;-71
2021/11/28 03:34:08;;;;;;;17.23;10.33;;;;;;;;;;5117615;28;20549;-71
2021/11/28 03:36:37;;;;;;;19.17;10.00;;;;;;;;;;5118432;28;20467;-71
2021/11/28 03:39:06;;;;;;;19.57;12.23;;;;;;;;;;5117790;28;20838;-71
2021/11/28 03:41:34;;;;;;;21.53;10.30;;;;;;;;;;5118033;28;20490;-71
2021/11/28 03:44:02;;;;;;;23.40;13.50;;;;;;;;;;5118166;28;20501;-71
2021/11/28 03:46:30;;;;;;;25.30;13.00;;;;;;;;;;5117374;28;20523;-71
2021/11/28 03:49:01;;;;;;;18.23;9.07;;;;;;;;;;5118035;28;20450;-71
2021/11/28 03:51:29;;;;;;;19.50;12.90;;;;;;;;;;5118276;28;20797;-71
2021/11/28 03:53:57;;;;;;;29.87;11.30;;;;;;;;;;5117922;28;20474;-71
2021/11/28 03:56:24;;;;;;;31.30;11.27;;;;;;;;;;5117953;28;20900;-71
2021/11/28 03:58:53;;;;;;;21.43;10.87;;;;;;;;;;5117643;28;20461;-71
2021/11/28 04:01:22;;;;;;;26.17;12.53;;;;;;;;;;5117786;28;20486;-71
2021/11/28 04:03:53;;;;;;;18.73;9.60;;;;;;;;;;5117805;28;20458;-72
2021/11/28 04:06:23;;;;;;;25.37;12.10;;;;;;;;;;5117904;28;20463;-72
2021/11/28 04:08:51;;;;;;;21.37;11.10;;;;;;;;;;5117486;28;20458;-72
2021/11/28 04:11:19;;;;;;;21.60;12.90;;;;;;;;;;5117172;28;20501;-71
2021/11/28 04:13:47;;;;;;;27.77;13.50;;;;;;;;;;5118188;28;20459;-72
2021/11/28 04:16:15;;;;;;;28.70;14.47;;;;;;;;;;5117366;28;20470;-72
2021/11/28 04:18:43;;;;;;;34.10;14.27;;;;;;;;;;5117182;28;20454;-72
2021/11/28 04:21:11;;;;;;;25.77;14.43;;;;;;;;;;5117503;28;20493;-71
2021/11/28 04:23:53;;;;;;;20.63;11.57;;;;;;;;;;5117998;28;20738;-71
2021/11/28 04:26:22;;;;;;;22.43;12.43;;;;;;;;;;5117389;28;20474;-72
2021/11/28 04:28:50;;;;;;;33.37;14.90;;;;;;;;;;5117585;28;20521;-72
2021/11/28 04:31:17;;;;;;;30.57;13.33;;;;;;;;;;5117616;28;20473;-71
2021/11/28 04:33:45;;;;;;;23.37;11.27;;;;;;;;;;5116655;28;20516;-72
2021/11/28 04:36:13;;;;;;;28.43;12.70;;;;;;;;;;5118220;28;21588;-71
2021/11/28 04:38:41;;;;;;;30.43;14.23;;;;;;;;;;5119368;28;20447;-72
2021/11/28 04:41:10;;;;;;;30.07;13.03;;;;;;;;;;5116682;28;20478;-72
2021/11/28 04:43:39;;;;;;;35.07;16.37;;;;;;;;;;5118044;28;20455;-72
2021/11/28 04:46:07;;;;;;;32.70;11.83;;;;;;;;;;5117716;28;20477;-71
2021/11/28 04:48:35;;;;;;;21.40;13.47;;;;;;;;;;5117901;28;20455;-72
2021/11/28 04:51:02;;;;;;;26.23;12.80;;;;;;;;;;5117903;28;20463;-72
2021/11/28 04:53:30;;;;;;;20.23;12.73;;;;;;;;;;5117060;28;20451;-72
2021/11/28 04:55:58;;;;;;;25.33;13.23;;;;;;;;;;5117206;28;20463;-72
2021/11/28 04:58:28;;;;;;;25.20;12.53;;;;;;;;;;5119580;28;20459;-72
2021/11/28 05:00:56;;;;;;;26.33;11.73;;;;;;;;;;5120648;27;20491;-71
2021/11/28 05:03:24;;;;;;;21.50;10.83;;;;;;;;;;5119956;27;20467;-72
2021/11/28 05:05:55;;;;;;;22.03;11.93;;;;;;;;;;5121257;27;20604;-72
2021/11/28 05:08:30;;;;;;;23.57;12.90;;;;;;;;;;5120905;27;20458;-72
2021/11/28 05:11:05;;;;;;;20.23;11.30;;;;;;;;;;5120939;27;20466;-72
2021/11/28 05:13:34;;;;;;;20.40;12.10;;;;;;;;;;5120611;27;20473;-71
2021/11/28 05:16:06;;;;;;;23.80;11.77;;;;;;;;;;5120963;27;20466;-71
2021/11/28 05:18:33;;;;;;;20.17;9.47;;;;;;;;;;5120659;27;20451;-71
2021/11/28 05:21:07;;;;;;;17.63;9.10;;;;;;;;;;5121777;28;20486;-71
2021/11/28 05:23:35;;;;;;;21.77;11.37;;;;;;;;;;5119571;27;20454;-71
2021/11/28 05:26:04;;;;;;;18.10;10.50;;;;;;;;;;5114365;27;20807;-72
2021/11/28 05:28:34;;;;;;;15.40;10.00;;;;;;;;;;5099827;28;20463;-71
2021/11/28 05:31:03;;;;;;;22.27;12.40;;;;;;;;;;5101583;28;20531;-71
2021/11/28 05:33:31;;;;;;;17.83;9.17;;;;;;;;;;5111925;27;20466;-71
2021/11/28 05:35:59;;;;;;;14.67;8.87;;;;;;;;;;5104011;27;20471;-71
2021/11/28 05:38:27;;;;;;;19.23;9.93;;;;;;;;;;5111620;27;20497;-71
2021/11/28 05:40:55;;;;;;;11.60;6.97;;;;;;;;;;5119932;27;20580;-71
2021/11/28 05:43:22;;;;;;;20.03;9.60;;;;;;;;;;5120519;27;20454;-71
2021/11/28 05:45:50;;;;;;;17.63;9.50;;;;;;;;;;5120073;27;20455;-71
2021/11/28 05:48:19;;;;;;;12.63;6.10;;;;;;;;;;5120683;27;20462;-71
2021/11/28 05:50:47;;;;;;;16.17;8.23;;;;;;;;;;5120674;28;20478;-71
2021/11/28 05:53:16;;;;;;;17.30;8.20;;;;;;;;;;5120288;27;20448;-71
2021/11/28 05:55:47;;;;;;;13.93;7.80;;;;;;;;;;5119585;27;20486;-73
2021/11/28 05:58:15;;;;;;;13.07;6.97;;;;;;;;;;5119858;27;20481;-70
2021/11/28 06:00:43;;;;;;;15.67;8.00;;;;;;;;;;5119987;27;20482;-72
2021/11/28 06:03:10;;;;;;;13.27;7.43;;;;;;;;;;5119917;28;20459;-72
2021/11/28 06:05:40;;;;;;;10.20;7.20;;;;;;;;;;5119068;27;20466;-72
2021/11/28 06:08:08;;;;;;;9.13;6.33;;;;;;;;;;5118581;27;20929;-72
2021/11/28 06:10:36;;;;;;;13.03;7.73;;;;;;;;;;5119349;27;20562;-71
2021/11/28 06:13:03;;;;;;;11.47;6.53;;;;;;;;;;5118938;27;20455;-72
2021/11/28 06:15:31;;;;;;;13.07;6.77;;;;;;;;;;5119708;27;20455;-72
2021/11/28 06:17:59;;;;;;;12.30;7.40;;;;;;;;;;5119212;27;20500;-71
2021/11/28 06:20:27;;;;;;;16.20;9.10;;;;;;;;;;5118534;27;20553;-72
2021/11/28 06:22:57;;;;;;;15.93;8.53;;;;;;;;;;5119167;28;20734;-72
2021/11/28 06:25:25;;;;;;;15.83;8.90;;;;;;;;;;5118960;27;20531;-72
2021/11/28 06:27:52;;;;;;;15.60;8.10;;;;;;;;;;5118721;27;20564;-72
2021/11/28 06:30:21;;;;;;;12.67;7.63;;;;;;;;;;5118467;27;20484;-72
2021/11/28 06:32:49;;;;;;;13.87;7.80;;;;;;;;;;5119340;27;20461;-71
2021/11/28 06:35:17;;;;;;;14.80;8.50;;;;;;;;;;5118596;27;20537;-72
2021/11/28 06:37:46;;;;;;;8.50;4.60;;;;;;;;;;5118858;28;20452;-72
2021/11/28 06:40:15;;;;;;;13.73;8.77;;;;;;;;;;5118899;27;20553;-72
2021/11/28 06:42:43;;;;;;;12.87;7.13;;;;;;;;;;5118889;27;20466;-71
2021/11/28 06:45:14;;;;;;;14.30;7.40;;;;;;;;;;5118810;27;20470;-72
2021/11/28 06:47:42;;;;;;;11.03;6.20;;;;;;;;;;5118801;27;20550;-72
2021/11/28 06:50:10;;;;;;;12.13;6.40;;;;;;;;;;5118658;27;20489;-72
2021/11/28 06:52:38;;;;;;;10.10;6.93;;;;;;;;;;5118557;28;20493;-72
2021/11/28 06:55:07;;;;;;;10.30;5.80;;;;;;;;;;5118902;27;20515;-71
2021/11/28 06:57:36;;;;;;;8.87;6.23;;;;;;;;;;5119423;27;20587;-71
2021/11/28 07:00:04;;;;;;;9.70;6.90;;;;;;;;;;5118240;28;20468;-71
2021/11/28 07:02:32;;;;;;;9.00;5.40;;;;;;;;;;5118903;27;20758;-71
2021/11/28 07:05:00;;;;;;;7.73;5.63;;;;;;;;;;5119142;27;20467;-71
2021/11/28 07:07:28;;;;;;;12.17;8.10;;;;;;;;;;5107828;28;20465;-71
2021/11/28 07:09:56;;;;;;;9.33;3.80;;;;;;;;;;5097505;28;20460;-71
2021/11/28 07:12:26;;;;;;;6.40;4.33;;;;;;;;;;5097835;28;20571;-71
2021/11/28 07:14:55;;;;;;;6.97;4.57;;;;;;;;;;5097760;28;20470;-71
2021/11/28 07:17:23;;;;;;;10.50;7.60;;;;;;;;;;5098031;28;20459;-70
2021/11/28 07:19:53;;;;;;;10.90;6.30;;;;;;;;;;5096688;28;20529;-71
2021/11/28 07:22:22;;;;;;;10.17;5.90;;;;;;;;;;5097451;28;20531;-71
2021/11/28 07:24:50;;;;;;;8.33;5.50;;;;;;;;;;5107612;28;20458;-72
2021/11/28 07:27:18;;;;;;;11.80;6.20;;;;;;;;;;5118636;28;20461;-72
2021/11/28 07:29:46;;;;;;;12.30;7.20;;;;;;;;;;5118464;27;20541;-72
2021/11/28 07:32:16;;;;;;;11.70;6.87;;;;;;;;;;5114980;28;20451;-72
2021/11/28 07:34:43;;;;;;;7.77;5.47;;;;;;;;;;5118380;28;20450;-72
2021/11/28 07:37:27;;;;;;;10.70;6.33;;;;;;;;;;5117135;27;20466;-71
2021/11/28 07:39:55;;;;;;;10.90;6.17;;;;;;;;;;5117854;28;20455;-71
2021/11/28 07:42:23;;;;;;;8.90;5.23;;;;;;;;;;5118241;28;20917;-71
2021/11/28 07:44:51;;;;;;;12.33;6.80;;;;;;;;;;5118413;28;20529;-71
2021/11/28 07:47:20;;;;;;;9.33;6.17;;;;;;;;;;5117322;28;20463;-71
2021/11/28 07:49:52;;;;;;;11.23;6.33;;;;;;;;;;5117650;28;20455;-71
2021/11/28 07:52:21;;;;;;;10.00;5.00;;;;;;;;;;5118724;28;20494;-71
2021/11/28 07:54:49;;;;;;;11.47;6.30;;;;;;;;;;5117553;28;20786;-70
2021/11/28 07:57:17;;;;;;;11.07;6.63;;;;;;;;;;5118239;28;20474;-72
2021/11/28 07:59:45;;;;;;;7.40;4.07;;;;;;;;;;5118109;28;20776;-72
2021/11/28 08:02:15;;;;;;;8.67;6.00;;;;;;;;;;5116648;28;20497;-72
2021/11/28 08:04:44;;;;;;;11.40;7.80;;;;;;;;;;5116899;28;20515;-72
2021/11/28 08:07:12;;;;;;;10.50;7.00;;;;;;;;;;5116697;28;20477;-72
2021/11/28 08:10:02;;;;;;;11.47;7.83;;;;;;;;;;5117709;28;20823;-72
2021/11/28 08:12:30;;;;;;;13.10;7.43;;;;;;;;;;5117557;28;21068;-71
2021/11/28 08:15:02;;;;;;;14.17;9.20;;;;;;;;;;5116849;28;20450;-71
2021/11/28 08:17:31;;;;;;;9.70;7.20;;;;;;;;;;5116893;28;20451;-72
2021/11/28 08:20:01;;;;;;;15.03;7.67;;;;;;;;;;5117204;28;20537;-72
2021/11/28 08:22:28;;;;;;;10.90;7.50;;;;;;;;;;5116141;28;20550;-71
2021/11/28 08:24:56;;;;;;;12.00;6.80;;;;;;;;;;5117240;28;20521;-71
2021/11/28 08:27:29;;;;;;;9.53;6.00;;;;;;;;;;5116613;28;20455;-71
2021/11/28 08:30:11;;;;;;;9.80;6.40;;;;;;;;;;5117295;28;21089;-72
2021/11/28 08:38:22;;;;;;;14.00;7.90;;;;;;;;;;5119518;27;20482;-72
2021/11/28 08:41:10;;;;;;;15.30;8.87;;;;;;;;;;5121015;27;20462;-72
2021/11/28 08:43:47;;;;;;;12.93;8.97;;;;;;;;;;5107602;27;20826;-72
2021/11/28 08:46:26;;;;;;;12.80;6.77;;;;;;;;;;5120267;27;20458;-71
2021/11/28 08:52:01;;;;;;;13.10;8.20;;;;;;;;;;5114659;27;20470;-72
2021/11/28 08:54:33;;;;;;;19.70;11.20;;;;;;;;;;5095293;27;20746;-71
2021/11/28 08:57:02;;;;;;;12.17;8.00;;;;;;;;;;5118722;27;20553;-71
2021/11/28 08:59:35;;;;;;;14.67;9.33;;;;;;;;;;5119835;27;20447;-71
2021/11/28 09:02:03;;;;;;;13.43;6.80;;;;;;;;;;5120197;27;20487;-72
2021/11/28 09:04:31;;;;;;;17.03;8.60;;;;;;;;;;5119789;27;20596;-72
2021/11/28 09:06:59;;;;;;;17.10;9.03;;;;;;;;;;5119570;27;20874;-72
2021/11/28 09:09:27;;;;;;;16.00;9.80;;;;;;;;;;5120588;27;20520;-73
2021/11/28 09:11:57;;;;;;;14.33;8.83;;;;;;;;;;5119745;27;20468;-71
2021/11/28 09:14:26;;;;;;;15.60;9.10;;;;;;;;;;5120151;27;20455;-71
2021/11/28 09:16:54;;;;;;;8.10;4.53;;;;;;;;;;5119703;27;20750;-71
2021/11/28 09:19:25;;;;;;;17.37;10.90;;;;;;;;;;5120468;27;20507;-71
2021/11/28 09:21:54;;;;;;;17.17;9.77;;;;;;;;;;5119316;27;20510;-72
2021/11/28 09:24:37;;;;;;;16.93;8.80;;;;;;;;;;5124312;27;20741;-71
2021/11/28 09:27:12;;;;;;;21.40;10.17;;;;;;;;;;5142001;27;20457;-71
2021/11/28 09:29:41;;;;;;;15.60;8.83;;;;;;;;;;5141176;27;20540;-71
2021/11/28 09:32:10;;;;;;;19.10;10.60;;;;;;;;;;5140841;27;20465;-71
2021/11/28 09:34:38;;;;;;;16.40;9.37;;;;;;;;;;5140657;27;20893;-71
2021/11/28 09:37:08;;;;;;;18.53;10.23;;;;;;;;;;5140975;27;20458;-71
2021/11/28 09:39:38;;;;;;;21.83;10.13;;;;;;;;;;5140734;27;20493;-71
2021/11/28 09:42:14;;;;;;;21.53;10.77;;;;;;;;;;5132758;27;20494;-71
2021/11/28 09:47:25;;;;;;;22.53;12.73;;;;;;;;;;5105327;27;20561;-71
2021/11/28 09:49:57;;;;;;;22.23;13.90;;;;;;;;;;5119455;27;20443;-71
2021/11/28 09:52:28;;;;;;;24.47;14.87;;;;;;;;;;5119221;27;20469;-72
2021/11/28 09:54:57;;;;;;;20.73;11.90;;;;;;;;;;5119149;28;20480;-72
2021/11/28 09:57:29;;;;;;;20.80;11.63;;;;;;;;;;5117400;28;20740;-72
2021/11/28 09:59:57;;;;;;;22.43;11.60;;;;;;;;;;5118243;27;20479;-71
2021/11/28 10:02:25;;;;;;;18.00;10.43;;;;;;;;;;5120132;27;20509;-71
2021/11/28 10:04:56;;;;;;;23.03;11.93;;;;;;;;;;5119694;27;20505;-72
2021/11/28 10:07:24;;;;;;;21.80;11.60;;;;;;;;;;5110796;27;20455;-71
2021/11/28 10:09:52;;;;;;;18.93;10.93;;;;;;;;;;5113115;28;20549;-72
2021/11/28 10:12:22;;;;;;;22.87;11.50;;;;;;;;;;5097583;28;20478;-71
2021/11/28 10:14:59;;;;;;;20.10;10.17;;;;;;;;;;5099004;28;20987;-72
2021/11/28 10:17:29;;;;;;;18.17;11.03;;;;;;;;;;5098104;28;20467;-71
2021/11/28 10:19:56;;;;;;;16.80;9.77;;;;;;;;;;5098570;28;20487;-71
2021/11/28 10:22:25;;;;;;;21.90;11.47;;;;;;;;;;5097842;28;20540;-72
2021/11/28 10:24:54;;;;;;;16.83;9.80;;;;;;;;;;5097952;28;20460;-72
2021/11/28 10:27:32;;;;;;;25.20;12.30;;;;;;;;;;5098232;28;20731;-71
2021/11/28 10:30:04;;;;;;;17.30;9.20;;;;;;;;;;5097759;28;20448;-71
2021/11/28 10:32:33;;;;;;;18.03;11.23;;;;;;;;;;5097162;28;20459;-71
2021/11/28 10:35:00;;;;;;;18.50;9.43;;;;;;;;;;5098433;28;20748;-71
2021/11/28 10:37:33;;;;;;;17.03;8.90;;;;;;;;;;5097954;28;20467;-71
2021/11/28 10:40:01;;;;;;;12.77;7.90;;;;;;;;;;5104643;28;20450;-71
2021/11/28 10:42:31;;;;;;;13.73;6.60;;;;;;;;;;5118807;27;20475;-72
2021/11/28 10:45:03;;;;;;;11.87;7.37;;;;;;;;;;5116776;27;20768;-71
2021/11/28 10:47:35;;;;;;;13.93;7.60;;;;;;;;;;5106966;28;20838;-71
2021/11/28 10:50:10;;;;;;;16.67;9.93;;;;;;;;;;5119137;27;20458;-71
2021/11/28 10:52:39;;;;;;;14.13;7.63;;;;;;;;;;5116021;27;20472;-71
2021/11/28 10:55:18;;;;;;;13.20;9.43;;;;;;;;;;5096752;28;20463;-71
2021/11/28 10:57:46;;;;;;;16.67;9.97;;;;;;;;;;5096968;28;20451;-71
2021/11/28 11:00:16;;;;;;;26.87;12.10;;;;;;;;;;5096453;28;20463;-70
2021/11/28 11:02:44;;;;;;;16.30;8.80;;;;;;;;;;5097062;28;20505;-71
2021/11/28 11:05:13;;;;;;;17.00;11.83;;;;;;;;;;5107833;27;20446;-72
2021/11/28 11:07:45;;;;;;;20.83;9.43;;;;;;;;;;5113354;28;20463;-72
2021/11/28 11:10:19;;;;;;;24.00;14.70;;;;;;;;;;5117371;27;20462;-71
2021/11/28 11:12:47;;;;;;;32.27;15.90;;;;;;;;;;5117070;27;20771;-71
2021/11/28 11:15:31;;;;;;;34.00;16.40;;;;;;;;;;5118180;27;20467;-71
2021/11/28 11:17:59;;;;;;;14.80;8.97;;;;;;;;;;5117985;27;20455;-71
2021/11/28 11:20:27;;;;;;;20.57;9.90;;;;;;;;;;5117933;27;20890;-71
2021/11/28 11:22:55;;;;;;;22.30;13.40;;;;;;;;;;5118141;28;20475;-72
2021/11/28 11:25:32;;;;;;;17.03;8.20;;;;;;;;;;5114885;28;20447;-72
2021/11/28 11:28:10;;;;;;;18.40;9.47;;;;;;;;;;5116459;28;20466;-72
2021/11/28 11:30:40;;;;;;;19.53;9.87;;;;;;;;;;5118023;28;20459;-72
2021/11/28 11:33:09;;;;;;;16.33;9.70;;;;;;;;;;5116221;28;21014;-71
2021/11/28 11:35:43;;;;;;;19.80;10.73;;;;;;;;;;5116582;28;20451;-71
2021/11/28 11:38:12;;;;;;;26.40;12.67;;;;;;;;;;5116345;28;20470;-72
2021/11/28 11:40:40;;;;;;;21.00;11.27;;;;;;;;;;5096526;28;20986;-72
2021/11/28 11:43:08;;;;;;;18.67;9.43;;;;;;;;;;5097484;28;20499;-72
2021/11/28 11:45:37;;;;;;;19.93;10.10;;;;;;;;;;5097496;28;20448;-72
2021/11/28 11:48:08;;;;;;;22.13;11.33;;;;;;;;;;5096573;28;20766;-72
2021/11/28 11:50:36;;;;;;;21.63;9.40;;;;;;;;;;5112748;28;20526;-72
2021/11/28 11:53:07;;;;;;;18.70;10.80;;;;;;;;;;5117190;28;20470;-72
2021/11/28 11:55:38;;;;;;;19.17;11.77;;;;;;;;;;5116917;28;20474;-73
2021/11/28 11:58:18;;;;;;;20.40;10.97;;;;;;;;;;5118246;28;20539;-73
2021/11/28 12:00:49;;;;;;;21.90;10.87;;;;;;;;;;5116758;28;20450;-72
2021/11/28 12:03:20;;;;;;;16.60;8.87;;;;;;;;;;5117589;28;20491;-71
2021/11/28 12:05:48;;;;;;;23.70;11.00;;;;;;;;;;5117752;28;20535;-71
2021/11/28 12:08:24;;;;;;;20.63;12.07;;;;;;;;;;5115630;27;20799;-72
2021/11/28 12:11:00;;;;;;;18.60;10.23;;;;;;;;;;5120824;27;20450;-71
2021/11/28 12:13:43;;;;;;;19.33;11.10;;;;;;;;;;5120283;27;20446;-72
2021/11/28 12:16:19;;;;;;;20.70;10.97;;;;;;;;;;5103586;27;20832;-72
2021/11/28 12:18:50;;;;;;;21.37;10.87;;;;;;;;;;5128079;27;20547;-71
2021/11/28 12:21:19;;;;;;;17.03;10.17;;;;;;;;;;5142429;27;20456;-72
2021/11/28 12:23:55;;;;;;;16.20;9.73;;;;;;;;;;5122592;27;21146;-71
2021/11/28 12:26:36;;;;;;;23.40;14.37;;;;;;;;;;5121127;28;20542;-72
2021/11/28 12:29:19;;;;;;;24.13;14.63;;;;;;;;;;5120746;27;20870;-72
2021/11/28 12:31:47;;;;;;;29.40;17.70;;;;;;;;;;5120580;27;20458;-71
2021/11/28 12:34:22;;;;;;;34.23;17.50;;;;;;;;;;5120485;27;20462;-72
2021/11/28 12:36:54;;;;;;;37.10;17.20;;;;;;;;;;5114488;28;20446;-71
2021/11/28 12:39:39;;;;;;;30.07;15.77;;;;;;;;;;5118368;27;20458;-73
2021/11/28 12:42:08;;;;;;;22.43;13.27;;;;;;;;;;5119576;27;20446;-72
2021/11/28 12:44:37;;;;;;;22.67;11.67;;;;;;;;;;5099989;28;20855;-73
2021/11/28 12:47:20;;;;;;;24.67;13.93;;;;;;;;;;5100361;28;20455;-73
2021/11/28 12:49:53;;;;;;;20.77;11.03;;;;;;;;;;5100057;28;20467;-72
2021/11/28 12:52:32;;;;;;;21.80;11.50;;;;;;;;;;5115199;27;20496;-72
2021/11/28 12:55:21;;;;;;;20.23;12.60;;;;;;;;;;5100251;28;20466;-72
2021/11/28 12:58:04;;;;;;;21.33;11.83;;;;;;;;;;5102369;28;20447;-73
2021/11/28 13:00:34;;;;;;;18.13;11.70;;;;;;;;;;5100110;28;20462;-72
2021/11/28 13:03:02;;;;;;;18.33;11.27;;;;;;;;;;5100511;28;20484;-72
2021/11/28 13:05:38;;;;;;;21.63;11.23;;;;;;;;;;5101230;28;20474;-72
2021/11/28 13:08:26;;;;;;;19.50;10.80;;;;;;;;;;5099750;28;20893;-72
2021/11/28 13:10:55;;;;;;;21.30;11.43;;;;;;;;;;5099785;28;20451;-73
2021/11/28 13:13:24;;;;;;;21.97;11.03;;;;;;;;;;5100308;28;20462;-71
2021/11/28 13:15:53;;;;;;;19.03;10.90;;;;;;;;;;5098697;28;20509;-71
2021/11/28 13:18:22;;;;;;;21.03;11.63;;;;;;;;;;5098023;28;20479;-71
2021/11/28 13:20:51;;;;;;;21.60;13.00;;;;;;;;;;5100012;28;20558;-71
2021/11/28 13:23:21;;;;;;;16.77;10.03;;;;;;;;;;5119263;27;20506;-71
2021/11/28 13:25:51;;;;;;;15.77;10.03;;;;;;;;;;5120553;27;20454;-72
2021/11/28 13:28:21;;;;;;;15.60;9.20;;;;;;;;;;5117850;27;20461;-72
2021/11/28 13:30:51;;;;;;;21.67;10.83;;;;;;;;;;5120774;27;20458;-72
2021/11/28 13:33:20;;;;;;;20.90;11.60;;;;;;;;;;5120666;27;20467;-72
2021/11/28 13:35:59;;;;;;;20.40;11.57;;;;;;;;;;5120163;27;20462;-72
2021/11/28 13:38:29;;;;;;;15.63;7.70;;;;;;;;;;5120151;27;20461;-71
2021/11/28 13:41:10;;;;;;;17.70;9.90;;;;;;;;;;5119152;27;20476;-71
2021/11/28 13:43:39;;;;;;;17.20;9.70;;;;;;;;;;5119872;27;20779;-72
2021/11/28 13:46:08;;;;;;;19.13;9.90;;;;;;;;;;5120496;27;20484;-73
2021/11/28 13:48:39;;;;;;;17.77;11.37;;;;;;;;;;5108941;27;20486;-72
2021/11/28 13:51:09;;;;;;;11.97;8.17;;;;;;;;;;5141532;27;20453;-72
2021/11/28 13:53:54;;;;;;;15.33;8.93;;;;;;;;;;5140519;27;20458;-72
2021/11/28 13:56:22;;;;;;;12.63;7.40;;;;;;;;;;5138950;27;20461;-72
2021/11/28 13:59:05;;;;;;;15.07;9.30;;;;;;;;;;5139597;27;20518;-71
2021/11/28 14:01:33;;;;;;;16.93;10.43;;;;;;;;;;5136021;27;20786;-72
2021/11/28 14:04:01;;;;;;;15.37;8.43;;;;;;;;;;5138275;27;20913;-72
2021/11/28 14:06:31;;;;;;;13.97;8.40;;;;;;;;;;5139420;27;20454;-73
2021/11/28 14:08:59;;;;;;;12.90;8.67;;;;;;;;;;5139451;27;20475;-71
2021/11/28 14:11:40;;;;;;;11.33;7.90;;;;;;;;;;5119105;27;20462;-71
2021/11/28 14:14:10;;;;;;;10.87;6.87;;;;;;;;;;5118195;27;20847;-72
2021/11/28 14:16:39;;;;;;;10.63;7.50;;;;;;;;;;5118784;27;20473;-73
2021/11/28 14:19:07;;;;;;;12.80;7.60;;;;;;;;;;5119011;27;20455;-72
2021/11/28 14:21:38;;;;;;;10.50;8.23;;;;;;;;;;5119758;27;20516;-72
2021/11/28 14:24:20;;;;;;;10.30;7.30;;;;;;;;;;5119564;27;20482;-72
2021/11/28 14:26:48;;;;;;;17.40;11.30;;;;;;;;;;5117356;28;20446;-72
2021/11/28 14:29:23;;;;;;;12.53;8.40;;;;;;;;;;5110474;27;20539;-72
2021/11/28 14:31:59;;;;;;;17.10;11.23;;;;;;;;;;5110735;27;20458;-72
2021/11/28 14:34:27;;;;;;;14.20;9.73;;;;;;;;;;5118143;27;21048;-73
2021/11/28 14:36:57;;;;;;;11.97;7.57;;;;;;;;;;5117548;27;20462;-72
2021/11/28 14:39:38;;;;;;;13.90;8.30;;;;;;;;;;5118505;27;20534;-72
2021/11/28 14:42:13;;;;;;;14.77;9.57;;;;;;;;;;5116645;27;20590;-72
2021/11/28 14:44:44;;;;;;;18.57;9.83;;;;;;;;;;5116425;27;20886;-72
2021/11/28 14:47:23;;;;;;;14.20;9.77;;;;;;;;;;5116440;27;20490;-72
2021/11/28 14:49:58;;;;;;;12.80;7.50;;;;;;;;;;5116597;27;20883;-72
2021/11/28 14:52:33;;;;;;;15.50;11.10;;;;;;;;;;5115768;27;20766;-72
2021/11/28 14:55:20;;;;;;;9.30;7.40;;;;;;;;;;5110564;27;20471;-71
2021/11/28 14:57:49;;;;;;;10.00;7.27;;;;;;;;;;5097677;28;20447;-71
2021/11/28 15:00:35;;;;;;;10.23;7.70;;;;;;;;;;5096651;28;20557;-72